createdAt,value
2018-07-23T00:00:53.351Z,100.00
2018-07-23T00:03:32.060Z,100.00
2018-07-23T00:06:04.151Z,100.00
2018-07-23T00:08:36.235Z,100.00
2018-07-23T00:11:08.317Z,100.00
2018-07-23T00:13:40.373Z,100.00
2018-07-23T00:16:12.419Z,100.00
2018-07-23T00:18:44.486Z,100.00
2018-07-23T00:21:16.563Z,100.00
2018-07-23T00:23:48.632Z,100.00
2018-07-23T00:26:20.703Z,100.00
2018-07-23T00:28:52.793Z,100.00
2018-07-23T00:31:24.827Z,100.00
2018-07-23T00:33:56.944Z,100.00
2018-07-23T00:36:28.984Z,100.00
2018-07-23T00:39:01.055Z,100.00
2018-07-23T00:41:33.104Z,100.00
2018-07-23T00:44:05.375Z,100.00
2018-07-23T00:46:37.448Z,100.00
2018-07-23T00:49:09.516Z,100.00
2018-07-23T00:51:41.577Z,100.00
2018-07-23T00:54:13.634Z,100.00
2018-07-23T00:56:45.765Z,100.00
2018-07-23T00:59:17.845Z,100.00
2018-07-23T01:01:49.899Z,100.00
2018-07-23T01:04:23.031Z,100.00
2018-07-23T01:06:55.093Z,100.00
2018-07-23T01:09:27.171Z,100.00
2018-07-23T01:11:59.256Z,100.00
2018-07-23T01:14:31.317Z,100.00
2018-07-23T01:17:03.449Z,100.00
2018-07-23T01:19:35.526Z,100.00
2018-07-23T01:22:07.642Z,100.00
2018-07-23T01:24:39.751Z,100.00
2018-07-23T01:27:11.856Z,100.00
2018-07-23T01:29:43.912Z,100.00
2018-07-23T01:32:16.256Z,100.00
2018-07-23T01:34:48.666Z,100.00
2018-07-23T01:37:20.751Z,100.00
2018-07-23T01:39:52.822Z,100.00
2018-07-23T01:42:24.882Z,100.00
2018-07-23T01:44:56.990Z,100.00
2018-07-23T01:47:29.026Z,100.00
2018-07-23T01:50:01.121Z,100.00
2018-07-23T01:52:33.248Z,100.00
2018-07-23T01:55:06.382Z,100.00
2018-07-23T01:57:38.464Z,100.00
2018-07-23T02:00:10.591Z,100.00
2018-07-23T02:02:42.694Z,100.00
2018-07-23T02:05:14.798Z,100.00
2018-07-23T02:07:46.932Z,100.00
2018-07-23T02:10:24.724Z,100.00
2018-07-23T02:12:56.792Z,100.00
2018-07-23T02:15:28.861Z,100.00
2018-07-23T02:18:00.935Z,100.00
2018-07-23T02:20:33.034Z,100.00
2018-07-23T02:23:05.133Z,100.00
2018-07-23T02:25:37.230Z,100.00
2018-07-23T02:28:09.287Z,100.00
2018-07-23T02:30:41.389Z,100.00
2018-07-23T02:33:13.479Z,100.00
2018-07-23T02:35:45.572Z,100.00
2018-07-23T02:38:17.653Z,100.00
2018-07-23T02:40:49.780Z,100.00
2018-07-23T02:43:21.861Z,100.00
2018-07-23T02:45:53.942Z,100.00
2018-07-23T02:48:26.053Z,100.00
2018-07-23T02:50:58.135Z,100.00
2018-07-23T02:53:30.246Z,100.00
2018-07-23T02:56:02.570Z,100.00
2018-07-23T02:58:34.618Z,100.00
2018-07-23T03:01:06.766Z,100.00
2018-07-23T03:03:38.893Z,100.00
2018-07-23T03:06:10.999Z,100.00
2018-07-23T03:08:43.080Z,100.00
2018-07-23T03:11:15.189Z,100.00
2018-07-23T03:13:47.341Z,100.00
2018-07-23T03:16:20.139Z,100.00
2018-07-23T03:18:52.208Z,100.00
2018-07-23T03:21:24.355Z,100.00
2018-07-23T03:23:56.523Z,100.00
2018-07-23T03:26:28.639Z,100.00
2018-07-23T03:29:00.756Z,100.00
2018-07-23T03:31:32.835Z,100.00
2018-07-23T03:34:05.147Z,100.00
2018-07-23T03:36:37.268Z,100.00
2018-07-23T03:39:10.487Z,100.00
2018-07-23T03:41:42.529Z,100.00
2018-07-23T03:44:14.595Z,100.00
2018-07-23T03:46:46.688Z,100.00
2018-07-23T03:49:18.768Z,100.00
2018-07-23T03:51:50.806Z,100.00
2018-07-23T03:54:22.928Z,100.00
2018-07-23T03:56:55.078Z,100.00
2018-07-23T03:59:27.278Z,100.00
2018-07-23T04:01:59.378Z,100.00
2018-07-23T04:04:38.348Z,100.00
2018-07-23T04:07:10.421Z,100.00
2018-07-23T04:09:42.863Z,100.00
2018-07-23T04:12:14.916Z,100.00
2018-07-23T04:14:47.015Z,100.00
2018-07-23T04:17:19.120Z,100.00
2018-07-23T04:19:51.212Z,100.00
2018-07-23T04:22:23.291Z,100.00
2018-07-23T04:24:55.353Z,100.00
2018-07-23T04:27:27.453Z,100.00
2018-07-23T04:29:59.526Z,100.00
2018-07-23T04:32:31.596Z,100.00
2018-07-23T04:35:03.766Z,100.00
2018-07-23T04:37:35.832Z,100.00
2018-07-23T04:40:07.874Z,100.00
2018-07-23T04:42:39.955Z,100.00
2018-07-23T04:45:12.051Z,100.00
2018-07-23T04:47:44.108Z,100.00
2018-07-23T04:50:16.238Z,99.20
2018-07-23T04:52:48.404Z,99.28
2018-07-23T04:55:20.455Z,98.75
2018-07-23T04:57:52.539Z,98.22
2018-07-23T05:00:24.637Z,99.33
2018-07-23T05:02:56.697Z,100.00
2018-07-23T05:05:28.747Z,100.00
2018-07-23T05:08:00.796Z,100.00
2018-07-23T05:10:32.922Z,100.00
2018-07-23T05:13:05.432Z,100.00
2018-07-23T05:15:37.504Z,100.00
2018-07-23T05:18:09.576Z,100.00
2018-07-23T05:20:41.686Z,100.00
2018-07-23T05:23:13.791Z,100.00
2018-07-23T05:25:45.875Z,99.51
2018-07-23T05:28:17.947Z,100.00
2018-07-23T05:30:50.032Z,100.00
2018-07-23T05:33:22.080Z,100.00
2018-07-23T05:35:54.241Z,99.11
2018-07-23T05:38:26.360Z,98.14
2018-07-23T05:40:58.405Z,97.60
2018-07-23T05:43:30.638Z,96.48
2018-07-23T05:46:02.832Z,95.47
2018-07-23T05:48:35.002Z,95.00
2018-07-23T05:51:07.093Z,92.71
2018-07-23T05:53:39.192Z,93.32
2018-07-23T05:56:11.298Z,93.32
2018-07-23T05:58:43.345Z,92.05
2018-07-23T06:01:15.428Z,92.01
2018-07-23T06:03:47.554Z,91.33
2018-07-23T06:06:19.676Z,91.68
2018-07-23T06:08:51.688Z,91.79
2018-07-23T06:11:23.795Z,91.97
2018-07-23T06:13:55.861Z,92.80
2018-07-23T06:16:27.949Z,92.18
2018-07-23T06:19:00.066Z,89.53
2018-07-23T06:21:32.168Z,88.79
2018-07-23T06:24:04.635Z,87.12
2018-07-23T06:26:36.761Z,87.06
2018-07-23T06:29:08.861Z,86.08
2018-07-23T06:31:41.052Z,85.87
2018-07-23T06:34:13.871Z,84.30
2018-07-23T06:36:45.947Z,83.37
2018-07-23T06:39:18.041Z,82.36
2018-07-23T06:41:50.124Z,81.31
2018-07-23T06:44:22.174Z,82.64
2018-07-23T06:46:54.274Z,80.63
2018-07-23T06:49:26.533Z,80.13
2018-07-23T06:51:58.754Z,80.12
2018-07-23T06:54:30.924Z,79.84
2018-07-23T06:57:03.040Z,79.20
2018-07-23T06:59:35.843Z,78.65
2018-07-23T07:02:07.896Z,77.74
2018-07-23T07:04:41.032Z,75.51
2018-07-23T07:07:13.112Z,74.79
2018-07-23T07:09:45.199Z,74.19
2018-07-23T07:12:17.350Z,72.37
2018-07-23T07:14:49.440Z,71.49
2018-07-23T07:17:21.557Z,68.33
2018-07-23T07:19:53.716Z,62.67
2018-07-23T07:22:25.825Z,58.27
2018-07-23T07:24:57.939Z,55.08
2018-07-23T07:27:30.041Z,52.38
2018-07-23T07:30:02.170Z,50.23
2018-07-23T07:32:34.338Z,48.65
2018-07-23T07:35:06.540Z,46.46
2018-07-23T07:37:38.621Z,45.26
2018-07-23T07:40:10.711Z,46.60
2018-07-23T07:42:42.856Z,48.59
2018-07-23T07:45:14.992Z,51.32
2018-07-23T07:47:47.163Z,51.91
2018-07-23T07:50:19.319Z,52.29
2018-07-23T07:52:51.409Z,49.82
2018-07-23T07:55:23.571Z,51.31
2018-07-23T07:57:56.028Z,52.36
2018-07-23T08:00:28.115Z,51.76
2018-07-23T08:03:00.280Z,53.77
2018-07-23T08:05:32.480Z,51.43
2018-07-23T08:08:04.620Z,49.34
2018-07-23T08:10:36.851Z,48.79
2018-07-23T08:13:10.220Z,47.19
2018-07-23T08:15:42.415Z,48.05
2018-07-23T08:18:14.627Z,46.86
2018-07-23T08:20:46.771Z,44.10
2018-07-23T08:23:18.936Z,42.22
2018-07-23T08:25:51.102Z,41.63
2018-07-23T08:28:24.225Z,39.73
2018-07-23T08:30:56.339Z,37.89
2018-07-23T08:33:28.444Z,37.03
2018-07-23T08:36:00.526Z,36.11
2018-07-23T08:38:32.630Z,36.94
2018-07-23T08:41:04.845Z,34.65
2018-07-23T08:43:36.944Z,37.37
2018-07-23T08:46:12.789Z,37.15
2018-07-23T08:48:44.869Z,34.63
2018-07-23T08:51:19.067Z,35.25
2018-07-23T08:53:51.120Z,33.94
2018-07-23T08:56:23.227Z,31.69
2018-07-23T08:58:55.336Z,33.20
2018-07-23T09:01:27.468Z,32.77
2018-07-23T09:03:59.578Z,33.69
2018-07-23T09:06:31.717Z,34.62
2018-07-23T09:09:08.039Z,36.65
2018-07-23T09:11:40.394Z,39.04
2018-07-23T09:14:12.474Z,35.33
2018-07-23T09:16:44.572Z,38.35
2018-07-23T09:19:16.684Z,35.96
2018-07-23T09:21:48.954Z,35.62
2018-07-23T09:24:21.025Z,34.17
2018-07-23T09:26:53.108Z,32.01
2018-07-23T09:29:25.226Z,32.04
2018-07-23T09:31:57.309Z,30.93
2018-07-23T09:34:29.383Z,32.38
2018-07-23T09:37:01.440Z,30.40
2018-07-23T09:39:33.502Z,29.22
2018-07-23T09:42:05.589Z,33.15
2018-07-23T09:44:37.659Z,32.84
2018-07-23T09:47:09.751Z,31.97
2018-07-23T09:49:41.780Z,36.05
2018-07-23T09:52:13.855Z,36.40
2018-07-23T09:54:45.931Z,37.19
2018-07-23T09:57:17.983Z,34.91
2018-07-23T09:59:50.049Z,33.81
2018-07-23T10:02:22.137Z,30.50
2018-07-23T10:04:54.261Z,30.16
2018-07-23T10:07:26.345Z,26.83
2018-07-23T10:09:58.546Z,26.70
2018-07-23T10:12:30.671Z,25.87
2018-07-23T10:15:02.908Z,27.97
2018-07-23T10:17:34.947Z,28.84
2018-07-23T10:20:07.062Z,28.53
2018-07-23T10:22:39.104Z,30.28
2018-07-23T10:25:11.192Z,29.06
2018-07-23T10:27:43.250Z,30.42
2018-07-23T10:30:15.320Z,30.58
2018-07-23T10:32:47.462Z,30.71
2018-07-23T10:35:19.659Z,32.51
2018-07-23T10:37:51.723Z,31.44
2018-07-23T10:40:23.847Z,30.39
2018-07-23T10:42:56.035Z,33.99
2018-07-23T10:45:28.165Z,30.76
2018-07-23T10:48:00.167Z,33.16
2018-07-23T10:50:36.083Z,33.23
2018-07-23T10:53:08.127Z,31.57
2018-07-23T10:55:40.472Z,33.36
2018-07-23T10:58:12.538Z,32.88
2018-07-23T11:00:46.815Z,33.74
2018-07-23T11:03:18.876Z,32.10
2018-07-23T11:05:50.956Z,32.66
2018-07-23T11:08:23.007Z,31.91
2018-07-23T11:10:55.093Z,31.43
2018-07-23T11:13:27.242Z,33.57
2018-07-23T11:15:59.621Z,34.71
2018-07-23T11:18:31.667Z,35.11
2018-07-23T11:21:03.746Z,33.43
2018-07-23T11:23:36.051Z,34.64
2018-07-23T11:26:08.101Z,31.46
2018-07-23T11:28:40.363Z,31.42
2018-07-23T11:31:12.420Z,31.43
2018-07-23T11:33:44.837Z,31.12
2018-07-23T11:36:16.896Z,31.68
2018-07-23T11:38:48.988Z,29.62
2018-07-23T11:41:21.063Z,26.31
2018-07-23T11:43:53.168Z,29.86
2018-07-23T11:46:25.314Z,28.15
2018-07-23T11:48:57.381Z,29.49
2018-07-23T11:51:29.435Z,29.89
2018-07-23T11:54:01.615Z,29.91
2018-07-23T11:56:33.698Z,29.41
2018-07-23T11:59:05.742Z,32.47
2018-07-23T12:01:37.830Z,29.44
2018-07-23T12:04:10.405Z,29.55
2018-07-23T12:06:42.041Z,26.71
2018-07-23T12:09:14.123Z,26.31
2018-07-23T12:11:46.224Z,26.62
2018-07-23T12:14:18.250Z,25.45
2018-07-23T12:16:50.243Z,26.07
2018-07-23T12:19:22.279Z,26.29
2018-07-23T12:21:54.275Z,26.27
2018-07-23T12:24:26.285Z,27.82
2018-07-23T12:26:58.279Z,28.01
2018-07-23T12:29:30.235Z,29.54
2018-07-23T12:32:02.285Z,28.59
2018-07-23T12:34:34.323Z,30.81
2018-07-23T12:37:06.267Z,32.34
2018-07-23T12:39:38.447Z,33.36
2018-07-23T12:42:10.410Z,32.89
2018-07-23T12:44:42.387Z,34.88
2018-07-23T12:47:14.366Z,32.13
2018-07-23T12:49:46.322Z,27.83
2018-07-23T12:52:18.282Z,26.62
2018-07-23T12:54:50.229Z,25.92
2018-07-23T12:57:22.316Z,27.95
2018-07-23T12:59:54.283Z,27.80
2018-07-23T13:02:26.256Z,29.20
2018-07-23T13:04:58.233Z,30.50
2018-07-23T13:07:30.231Z,32.15
2018-07-23T13:10:02.292Z,32.21
2018-07-23T13:12:34.322Z,33.07
2018-07-23T13:15:06.372Z,30.27
2018-07-23T13:17:38.393Z,26.75
2018-07-23T13:20:10.375Z,24.84
2018-07-23T13:22:42.379Z,24.75
2018-07-23T13:25:14.443Z,25.18
2018-07-23T13:27:46.519Z,25.19
2018-07-23T13:30:18.517Z,22.98
2018-07-23T13:32:50.515Z,24.30
2018-07-23T13:35:22.507Z,26.15
2018-07-23T13:37:54.508Z,31.43
2018-07-23T13:40:26.496Z,39.44
2018-07-23T13:42:58.495Z,44.01
2018-07-23T13:45:30.498Z,47.83
2018-07-23T13:48:02.592Z,52.77
2018-07-23T13:50:34.599Z,56.94
2018-07-23T13:53:06.630Z,68.66
2018-07-23T13:55:38.624Z,74.13
2018-07-23T13:58:10.637Z,80.03
2018-07-23T14:00:42.623Z,77.60
2018-07-23T14:03:14.619Z,81.08
2018-07-23T14:05:46.612Z,79.02
2018-07-23T14:08:19.390Z,84.71
2018-07-23T14:10:51.385Z,88.03
2018-07-23T14:13:23.367Z,88.11
2018-07-23T14:15:55.363Z,88.83
2018-07-23T14:18:27.352Z,89.28
2018-07-23T14:20:59.311Z,88.99
2018-07-23T14:23:31.312Z,86.56
2018-07-23T14:26:03.342Z,85.37
2018-07-23T14:28:35.341Z,83.94
2018-07-23T14:31:07.420Z,83.62
2018-07-23T14:33:39.411Z,84.81
2018-07-23T14:36:11.581Z,85.17
2018-07-23T14:38:43.550Z,82.82
2018-07-23T14:41:15.536Z,78.26
2018-07-23T14:43:47.514Z,79.68
2018-07-23T14:46:21.542Z,77.89
2018-07-23T14:48:53.547Z,73.86
2018-07-23T14:51:25.530Z,73.50
2018-07-23T14:53:58.522Z,70.90
2018-07-23T14:56:30.572Z,70.47
2018-07-23T14:59:02.569Z,68.79
2018-07-23T15:01:34.559Z,68.16
2018-07-23T15:04:06.568Z,64.96
2018-07-23T15:06:38.575Z,65.39
2018-07-23T15:09:10.574Z,65.51
2018-07-23T15:11:42.547Z,62.91
2018-07-23T15:14:18.038Z,61.76
2018-07-23T15:16:52.070Z,60.42
2018-07-23T15:19:24.067Z,58.01
2018-07-23T15:21:56.328Z,56.75
2018-07-23T15:24:28.314Z,56.14
2018-07-23T15:27:00.319Z,55.87
2018-07-23T15:29:32.291Z,50.11
2018-07-23T15:32:04.537Z,45.67
2018-07-23T15:34:36.546Z,43.76
2018-07-23T15:37:08.552Z,46.18
2018-07-23T15:39:40.606Z,44.98
2018-07-23T15:42:12.611Z,44.39
2018-07-23T15:44:44.846Z,43.55
2018-07-23T15:47:16.679Z,44.87
2018-07-23T15:49:48.666Z,44.19
2018-07-23T15:52:20.654Z,41.68
2018-07-23T15:54:52.643Z,41.32
2018-07-23T15:57:24.638Z,40.34
2018-07-23T15:59:56.621Z,38.47
2018-07-23T16:02:28.672Z,39.09
2018-07-23T16:05:00.766Z,37.78
2018-07-23T16:07:32.739Z,36.98
2018-07-23T16:10:04.758Z,34.92
2018-07-23T16:12:36.736Z,35.47
2018-07-23T16:15:09.050Z,37.17
2018-07-23T16:17:41.044Z,37.13
2018-07-23T16:20:13.030Z,39.14
2018-07-23T16:22:45.034Z,36.89
2018-07-23T16:25:17.010Z,36.22
2018-07-23T16:27:49.028Z,36.63
2018-07-23T16:30:21.045Z,37.60
2018-07-23T16:32:53.010Z,38.04
2018-07-23T16:35:25.010Z,44.54
2018-07-23T16:37:57.021Z,43.34
2018-07-23T16:40:29.004Z,44.64
2018-07-23T16:43:01.043Z,46.14
2018-07-23T16:45:33.047Z,46.64
2018-07-23T16:48:05.126Z,48.80
2018-07-23T16:50:37.131Z,53.35
2018-07-23T16:53:09.174Z,53.68
2018-07-23T16:55:41.155Z,53.38
2018-07-23T16:58:13.153Z,56.63
2018-07-23T17:00:45.140Z,58.08
2018-07-23T17:03:17.286Z,60.29
2018-07-23T17:05:49.315Z,61.67
2018-07-23T17:08:21.338Z,62.85
2018-07-23T17:10:53.337Z,62.64
2018-07-23T17:13:25.307Z,63.35
2018-07-23T17:15:57.323Z,62.84
2018-07-23T17:18:29.331Z,63.89
2018-07-23T17:21:01.568Z,63.74
2018-07-23T17:23:33.643Z,63.57
2018-07-23T17:26:05.965Z,62.77
2018-07-23T17:28:37.975Z,62.37
2018-07-23T17:31:10.046Z,63.95
2018-07-23T17:33:42.100Z,63.90
2018-07-23T17:36:14.140Z,66.02
2018-07-23T17:38:46.115Z,64.91
2018-07-23T17:41:18.154Z,65.93
2018-07-23T17:43:50.199Z,65.11
2018-07-23T17:46:22.253Z,64.88
2018-07-23T17:48:54.265Z,64.62
2018-07-23T17:51:26.274Z,64.83
2018-07-23T17:53:58.273Z,66.04
2018-07-23T17:56:30.302Z,65.21
2018-07-23T17:59:02.322Z,66.29
2018-07-23T18:01:34.346Z,66.39
2018-07-23T18:04:06.359Z,66.87
2018-07-23T18:06:38.586Z,66.37
2018-07-23T18:09:11.973Z,67.81
2018-07-23T18:11:43.981Z,65.72
2018-07-23T18:14:18.335Z,67.59
2018-07-23T18:16:50.346Z,67.23
2018-07-23T18:19:22.434Z,67.59
2018-07-23T18:21:58.914Z,68.12
2018-07-23T18:24:30.854Z,66.94
2018-07-23T18:27:03.051Z,67.62
2018-07-23T18:29:42.507Z,69.32
2018-07-23T18:32:15.703Z,69.20
2018-07-23T18:34:48.695Z,69.77
2018-07-23T18:37:20.674Z,70.62
2018-07-23T18:39:52.632Z,71.47
2018-07-23T18:42:24.630Z,71.02
2018-07-23T18:44:56.586Z,72.79
2018-07-23T18:47:28.542Z,73.38
2018-07-23T18:50:00.590Z,74.17
2018-07-23T18:52:32.581Z,74.63
2018-07-23T18:55:04.588Z,75.97
2018-07-23T18:57:36.550Z,77.91
2018-07-23T19:00:08.675Z,79.14
2018-07-23T19:02:40.595Z,78.59
2018-07-23T19:05:12.566Z,79.03
2018-07-23T19:07:44.525Z,79.40
2018-07-23T19:10:16.486Z,79.37
2018-07-23T19:12:48.494Z,79.96
2018-07-23T19:15:20.469Z,80.72
2018-07-23T19:17:53.475Z,79.93
2018-07-23T19:20:25.550Z,78.80
2018-07-23T19:22:57.471Z,78.57
2018-07-23T19:25:29.490Z,77.92
2018-07-23T19:28:01.473Z,77.94
2018-07-23T19:30:33.451Z,78.76
2018-07-23T19:33:05.502Z,80.08
2018-07-23T19:35:37.478Z,79.60
2018-07-23T19:38:09.457Z,80.15
2018-07-23T19:40:42.466Z,79.49
2018-07-23T19:43:14.490Z,79.10
2018-07-23T19:45:46.486Z,78.92
2018-07-23T19:48:18.462Z,78.52
2018-07-23T19:50:50.681Z,78.89
2018-07-23T19:53:23.249Z,79.99
2018-07-23T19:55:55.350Z,79.94
2018-07-23T19:58:27.346Z,79.21
2018-07-23T20:00:59.326Z,78.82
2018-07-23T20:03:31.551Z,77.62
2018-07-23T20:06:03.627Z,78.20
2018-07-23T20:08:35.623Z,78.84
2018-07-23T20:11:07.688Z,78.37
2018-07-23T20:13:39.634Z,78.58
2018-07-23T20:16:11.592Z,77.56
2018-07-23T20:18:43.669Z,77.64
2018-07-23T20:21:15.666Z,78.92
2018-07-23T20:23:47.643Z,79.34
2018-07-23T20:26:19.594Z,80.33
2018-07-23T20:28:51.582Z,80.80
2018-07-23T20:31:23.550Z,80.73
2018-07-23T20:33:55.500Z,80.09
2018-07-23T20:36:27.468Z,80.95
2018-07-23T20:38:59.791Z,81.58
2018-07-23T20:41:31.775Z,82.44
2018-07-23T20:44:03.807Z,83.19
2018-07-23T20:46:35.775Z,82.73
2018-07-23T20:49:07.750Z,83.53
2018-07-23T20:51:39.703Z,83.79
2018-07-23T20:54:11.686Z,84.64
2018-07-23T20:56:43.749Z,85.10
2018-07-23T20:59:15.671Z,84.85
2018-07-23T21:01:47.622Z,84.85
2018-07-23T21:04:20.589Z,84.94
2018-07-23T21:06:52.538Z,85.31
2018-07-23T21:09:24.516Z,85.82
2018-07-23T21:11:56.475Z,85.69
2018-07-23T21:14:28.503Z,85.77
2018-07-23T21:17:00.481Z,85.77
2018-07-23T21:19:32.514Z,86.89
2018-07-23T21:22:04.539Z,87.19
2018-07-23T21:24:36.498Z,87.14
2018-07-23T21:27:08.451Z,87.37
2018-07-23T21:29:40.511Z,87.29
2018-07-23T21:32:12.491Z,87.77
2018-07-23T21:34:44.615Z,88.51
2018-07-23T21:37:16.593Z,88.67
2018-07-23T21:39:48.555Z,89.23
2018-07-23T21:42:20.597Z,89.53
2018-07-23T21:44:52.603Z,89.00
2018-07-23T21:47:24.634Z,89.64
2018-07-23T21:49:56.602Z,89.86
2018-07-23T21:52:28.553Z,89.99
2018-07-23T21:55:00.536Z,91.41
2018-07-23T21:57:32.496Z,91.18
2018-07-23T22:00:08.954Z,91.88
2018-07-23T22:02:40.974Z,92.40
2018-07-23T22:05:12.958Z,92.87
2018-07-23T22:07:44.971Z,92.24
2018-07-23T22:10:16.926Z,92.70
2018-07-23T22:12:48.923Z,93.44
2018-07-23T22:15:20.879Z,94.40
2018-07-23T22:17:52.886Z,95.29
2018-07-23T22:20:24.868Z,95.80
2018-07-23T22:22:56.832Z,96.15
2018-07-23T22:25:28.851Z,96.82
2018-07-23T22:28:00.822Z,96.68
2018-07-23T22:30:32.792Z,97.10
2018-07-23T22:33:04.810Z,96.76
2018-07-23T22:35:37.803Z,96.64
2018-07-23T22:38:09.811Z,96.72
2018-07-23T22:40:41.766Z,96.89
2018-07-23T22:43:13.815Z,97.21
2018-07-23T22:45:45.794Z,96.85
2018-07-23T22:48:17.810Z,96.96
2018-07-23T22:50:49.768Z,96.71
2018-07-23T22:53:21.722Z,97.49
2018-07-23T22:55:53.715Z,98.42
2018-07-23T22:58:25.775Z,98.75
2018-07-23T23:00:57.743Z,99.24
2018-07-23T23:03:29.726Z,98.67
2018-07-23T23:06:01.695Z,99.05
2018-07-23T23:08:33.670Z,100.00
2018-07-23T23:11:05.642Z,100.00
2018-07-23T23:13:37.631Z,100.00
2018-07-23T23:16:09.656Z,100.00
2018-07-23T23:18:41.655Z,99.76
2018-07-23T23:21:13.626Z,100.00
2018-07-23T23:23:45.611Z,100.00
2018-07-23T23:26:17.574Z,100.00
2018-07-23T23:28:49.550Z,100.00
2018-07-23T23:31:21.606Z,100.00
2018-07-23T23:33:53.547Z,100.00
2018-07-23T23:36:25.506Z,100.00
2018-07-23T23:38:57.455Z,100.00
2018-07-23T23:41:29.403Z,100.00
2018-07-23T23:44:01.383Z,100.00
2018-07-23T23:46:33.534Z,100.00
2018-07-23T23:49:05.546Z,100.00
2018-07-23T23:51:37.526Z,100.00
2018-07-23T23:54:09.504Z,100.00
2018-07-23T23:56:41.468Z,100.00
2018-07-23T23:59:13.435Z,100.00
